sensor_id;sensor_type;location;lat;lon;timestamp;P1;durP1;ratioP1;P2;durP2;ratioP2
19903;SDS011;10114;50.970;4.962;2023-03-17T00:00:42;4.35;;;1.17;;
19903;SDS011;10114;50.970;4.962;2023-03-17T00:03:27;3.47;;;1.20;;
19903;SDS011;10114;50.970;4.962;2023-03-17T00:05:54;4.07;;;1.50;;
19903;SDS011;10114;50.970;4.962;2023-03-17T00:08:25;4.45;;;1.27;;
19903;SDS011;10114;50.970;4.962;2023-03-17T00:10:51;2.65;;;1.13;;
19903;SDS011;10114;50.970;4.962;2023-03-17T00:13:17;3.95;;;1.13;;
19903;SDS011;10114;50.970;4.962;2023-03-17T00:15:44;5.18;;;1.40;;
19903;SDS011;10114;50.970;4.962;2023-03-17T00:18:15;2.72;;;1.10;;
19903;SDS011;10114;50.970;4.962;2023-03-17T00:20:42;2.20;;;1.05;;
19903;SDS011;10114;50.970;4.962;2023-03-17T00:23:11;4.47;;;1.30;;
19903;SDS011;10114;50.970;4.962;2023-03-17T00:25:38;4.93;;;1.30;;
19903;SDS011;10114;50.970;4.962;2023-03-17T00:28:08;4.10;;;1.40;;
19903;SDS011;10114;50.970;4.962;2023-03-17T00:30:37;2.78;;;1.02;;
19903;SDS011;10114;50.970;4.962;2023-03-17T00:33:03;3.47;;;1.10;;
19903;SDS011;10114;50.970;4.962;2023-03-17T00:35:30;3.55;;;1.27;;
19903;SDS011;10114;50.970;4.962;2023-03-17T00:37:56;7.20;;;1.30;;
19903;SDS011;10114;50.970;4.962;2023-03-17T00:42:50;7.72;;;1.08;;
19903;SDS011;10114;50.970;4.962;2023-03-17T00:45:16;2.47;;;1.00;;
19903;SDS011;10114;50.970;4.962;2023-03-17T00:47:43;4.70;;;1.30;;
19903;SDS011;10114;50.970;4.962;2023-03-17T00:50:16;3.88;;;1.15;;
19903;SDS011;10114;50.970;4.962;2023-03-17T00:52:44;4.03;;;1.38;;
19903;SDS011;10114;50.970;4.962;2023-03-17T00:55:10;4.45;;;1.42;;
19903;SDS011;10114;50.970;4.962;2023-03-17T00:57:37;2.15;;;1.08;;
19903;SDS011;10114;50.970;4.962;2023-03-17T01:00:04;2.17;;;1.00;;
19903;SDS011;10114;50.970;4.962;2023-03-17T01:02:31;3.38;;;1.25;;
19903;SDS011;10114;50.970;4.962;2023-03-17T01:04:57;3.60;;;1.30;;
19903;SDS011;10114;50.970;4.962;2023-03-17T01:07:24;5.15;;;1.35;;
19903;SDS011;10114;50.970;4.962;2023-03-17T01:09:51;4.03;;;1.38;;
19903;SDS011;10114;50.970;4.962;2023-03-17T01:12:17;2.92;;;1.05;;
19903;SDS011;10114;50.970;4.962;2023-03-17T01:14:44;3.60;;;1.17;;
19903;SDS011;10114;50.970;4.962;2023-03-17T01:17:14;4.13;;;1.30;;
19903;SDS011;10114;50.970;4.962;2023-03-17T01:19:41;3.97;;;1.15;;
19903;SDS011;10114;50.970;4.962;2023-03-17T01:22:08;3.75;;;1.48;;
19903;SDS011;10114;50.970;4.962;2023-03-17T01:24:34;4.15;;;1.33;;
19903;SDS011;10114;50.970;4.962;2023-03-17T01:27:01;3.67;;;1.38;;
19903;SDS011;10114;50.970;4.962;2023-03-17T01:29:27;3.97;;;1.30;;
19903;SDS011;10114;50.970;4.962;2023-03-17T01:31:53;3.15;;;1.08;;
19903;SDS011;10114;50.970;4.962;2023-03-17T01:34:19;3.25;;;1.10;;
19903;SDS011;10114;50.970;4.962;2023-03-17T01:36:46;3.00;;;1.20;;
19903;SDS011;10114;50.970;4.962;2023-03-17T01:39:12;3.15;;;1.30;;
19903;SDS011;10114;50.970;4.962;2023-03-17T01:41:39;4.40;;;1.30;;
19903;SDS011;10114;50.970;4.962;2023-03-17T01:44:05;3.45;;;1.15;;
19903;SDS011;10114;50.970;4.962;2023-03-17T01:46:34;3.53;;;1.13;;
19903;SDS011;10114;50.970;4.962;2023-03-17T01:54:07;2.70;;;1.10;;
19903;SDS011;10114;50.970;4.962;2023-03-17T01:56:34;5.18;;;1.55;;
19903;SDS011;10114;50.970;4.962;2023-03-17T01:59:03;4.38;;;1.48;;
19903;SDS011;10114;50.970;4.962;2023-03-17T02:01:32;4.18;;;1.20;;
19903;SDS011;10114;50.970;4.962;2023-03-17T02:04:01;3.45;;;1.45;;
19903;SDS011;10114;50.970;4.962;2023-03-17T02:06:28;4.10;;;1.20;;
19903;SDS011;10114;50.970;4.962;2023-03-17T02:08:55;5.15;;;1.20;;
19903;SDS011;10114;50.970;4.962;2023-03-17T02:11:21;3.55;;;1.20;;
19903;SDS011;10114;50.970;4.962;2023-03-17T02:13:48;2.03;;;1.00;;
19903;SDS011;10114;50.970;4.962;2023-03-17T02:16:14;3.08;;;1.20;;
19903;SDS011;10114;50.970;4.962;2023-03-17T02:18:41;4.57;;;1.33;;
19903;SDS011;10114;50.970;4.962;2023-03-17T02:23:34;9.95;;;1.27;;
19903;SDS011;10114;50.970;4.962;2023-03-17T02:26:00;3.28;;;1.00;;
19903;SDS011;10114;50.970;4.962;2023-03-17T02:28:28;4.63;;;1.10;;
19903;SDS011;10114;50.970;4.962;2023-03-17T02:30:55;5.15;;;1.10;;
19903;SDS011;10114;50.970;4.962;2023-03-17T02:33:21;2.90;;;1.30;;
19903;SDS011;10114;50.970;4.962;2023-03-17T02:35:47;3.70;;;1.40;;
19903;SDS011;10114;50.970;4.962;2023-03-17T02:38:13;2.72;;;1.15;;
19903;SDS011;10114;50.970;4.962;2023-03-17T02:40:40;3.78;;;1.42;;
19903;SDS011;10114;50.970;4.962;2023-03-17T02:43:06;4.18;;;1.42;;
19903;SDS011;10114;50.970;4.962;2023-03-17T02:45:32;4.22;;;1.33;;
19903;SDS011;10114;50.970;4.962;2023-03-17T02:47:59;3.30;;;1.10;;
19903;SDS011;10114;50.970;4.962;2023-03-17T02:50:25;4.32;;;1.33;;
19903;SDS011;10114;50.970;4.962;2023-03-17T02:52:52;4.95;;;1.63;;
19903;SDS011;10114;50.970;4.962;2023-03-17T02:55:19;4.97;;;1.30;;
19903;SDS011;10114;50.970;4.962;2023-03-17T02:57:45;3.08;;;1.02;;
19903;SDS011;10114;50.970;4.962;2023-03-17T03:00:11;5.70;;;1.58;;
19903;SDS011;10114;50.970;4.962;2023-03-17T03:02:38;3.85;;;1.20;;
19903;SDS011;10114;50.970;4.962;2023-03-17T03:05:04;3.97;;;1.48;;
19903;SDS011;10114;50.970;4.962;2023-03-17T03:07:31;3.38;;;1.27;;
19903;SDS011;10114;50.970;4.962;2023-03-17T03:09:57;3.72;;;1.52;;
19903;SDS011;10114;50.970;4.962;2023-03-17T03:12:23;5.10;;;1.40;;
19903;SDS011;10114;50.970;4.962;2023-03-17T03:14:49;4.30;;;1.17;;
19903;SDS011;10114;50.970;4.962;2023-03-17T03:17:15;2.75;;;1.20;;
19903;SDS011;10114;50.970;4.962;2023-03-17T03:19:42;4.30;;;1.20;;
19903;SDS011;10114;50.970;4.962;2023-03-17T03:22:08;4.47;;;1.30;;
19903;SDS011;10114;50.970;4.962;2023-03-17T03:24:34;4.93;;;2.15;;
19903;SDS011;10114;50.970;4.962;2023-03-17T03:27:00;2.97;;;1.20;;
19903;SDS011;10114;50.970;4.962;2023-03-17T03:29:26;3.88;;;1.27;;
19903;SDS011;10114;50.970;4.962;2023-03-17T03:31:52;4.18;;;1.60;;
19903;SDS011;10114;50.970;4.962;2023-03-17T03:34:18;3.78;;;1.48;;
19903;SDS011;10114;50.970;4.962;2023-03-17T03:36:44;3.95;;;1.40;;
19903;SDS011;10114;50.970;4.962;2023-03-17T03:39:10;4.00;;;1.38;;
19903;SDS011;10114;50.970;4.962;2023-03-17T03:41:36;4.00;;;1.40;;
19903;SDS011;10114;50.970;4.962;2023-03-17T03:44:02;3.50;;;1.33;;
19903;SDS011;10114;50.970;4.962;2023-03-17T03:46:28;3.88;;;1.58;;
19903;SDS011;10114;50.970;4.962;2023-03-17T03:48:54;4.25;;;1.55;;
19903;SDS011;10114;50.970;4.962;2023-03-17T03:51:20;4.00;;;1.40;;
19903;SDS011;10114;50.970;4.962;2023-03-17T03:53:46;3.28;;;1.50;;
19903;SDS011;10114;50.970;4.962;2023-03-17T03:56:12;5.18;;;1.35;;
19903;SDS011;10114;50.970;4.962;2023-03-17T03:58:39;5.68;;;1.45;;
19903;SDS011;10114;50.970;4.962;2023-03-17T04:01:06;3.92;;;1.60;;
19903;SDS011;10114;50.970;4.962;2023-03-17T04:03:33;3.15;;;1.10;;
19903;SDS011;10114;50.970;4.962;2023-03-17T04:05:59;4.82;;;1.42;;
19903;SDS011;10114;50.970;4.962;2023-03-17T04:08:25;5.45;;;1.30;;
19903;SDS011;10114;50.970;4.962;2023-03-17T04:10:51;4.47;;;1.45;;
19903;SDS011;10114;50.970;4.962;2023-03-17T04:13:17;3.00;;;1.33;;
19903;SDS011;10114;50.970;4.962;2023-03-17T04:15:43;4.65;;;1.67;;
19903;SDS011;10114;50.970;4.962;2023-03-17T04:18:09;4.65;;;1.25;;
19903;SDS011;10114;50.970;4.962;2023-03-17T04:20:35;3.50;;;1.50;;
19903;SDS011;10114;50.970;4.962;2023-03-17T04:23:02;4.10;;;1.30;;
19903;SDS011;10114;50.970;4.962;2023-03-17T04:25:28;3.67;;;1.40;;
19903;SDS011;10114;50.970;4.962;2023-03-17T04:27:55;4.15;;;1.38;;
19903;SDS011;10114;50.970;4.962;2023-03-17T04:30:21;3.35;;;1.30;;
19903;SDS011;10114;50.970;4.962;2023-03-17T04:32:47;4.28;;;1.35;;
19903;SDS011;10114;50.970;4.962;2023-03-17T04:35:14;3.55;;;1.38;;
19903;SDS011;10114;50.970;4.962;2023-03-17T04:37:41;5.45;;;1.67;;
19903;SDS011;10114;50.970;4.962;2023-03-17T04:40:07;6.50;;;1.92;;
19903;SDS011;10114;50.970;4.962;2023-03-17T04:42:34;4.97;;;1.90;;
19903;SDS011;10114;50.970;4.962;2023-03-17T04:45:00;4.25;;;1.55;;
19903;SDS011;10114;50.970;4.962;2023-03-17T04:47:26;3.42;;;1.27;;
19903;SDS011;10114;50.970;4.962;2023-03-17T04:49:52;3.47;;;1.30;;
19903;SDS011;10114;50.970;4.962;2023-03-17T04:52:18;3.58;;;1.45;;
19903;SDS011;10114;50.970;4.962;2023-03-17T04:54:44;3.67;;;1.20;;
19903;SDS011;10114;50.970;4.962;2023-03-17T04:57:10;4.82;;;1.33;;
19903;SDS011;10114;50.970;4.962;2023-03-17T04:59:36;5.18;;;1.40;;
19903;SDS011;10114;50.970;4.962;2023-03-17T05:02:02;3.63;;;1.30;;
19903;SDS011;10114;50.970;4.962;2023-03-17T05:04:28;4.97;;;1.30;;
19903;SDS011;10114;50.970;4.962;2023-03-17T05:06:54;9.52;;;1.60;;
19903;SDS011;10114;50.970;4.962;2023-03-17T05:09:22;7.05;;;1.55;;
19903;SDS011;10114;50.970;4.962;2023-03-17T05:11:48;3.58;;;1.42;;
19903;SDS011;10114;50.970;4.962;2023-03-17T05:14:15;3.03;;;1.27;;
19903;SDS011;10114;50.970;4.962;2023-03-17T05:16:41;4.45;;;1.70;;
19903;SDS011;10114;50.970;4.962;2023-03-17T05:19:07;4.20;;;1.48;;
19903;SDS011;10114;50.970;4.962;2023-03-17T05:21:33;6.35;;;1.60;;
19903;SDS011;10114;50.970;4.962;2023-03-17T05:24:00;3.13;;;1.52;;
19903;SDS011;10114;50.970;4.962;2023-03-17T05:26:26;4.95;;;1.40;;
19903;SDS011;10114;50.970;4.962;2023-03-17T05:28:52;6.60;;;1.50;;
19903;SDS011;10114;50.970;4.962;2023-03-17T05:31:18;7.70;;;1.50;;
19903;SDS011;10114;50.970;4.962;2023-03-17T05:33:44;3.97;;;1.40;;
19903;SDS011;10114;50.970;4.962;2023-03-17T05:36:10;4.03;;;1.83;;
19903;SDS011;10114;50.970;4.962;2023-03-17T05:38:37;5.82;;;1.40;;
19903;SDS011;10114;50.970;4.962;2023-03-17T05:41:03;4.88;;;1.45;;
19903;SDS011;10114;50.970;4.962;2023-03-17T05:43:29;3.47;;;1.50;;
19903;SDS011;10114;50.970;4.962;2023-03-17T05:45:55;6.28;;;1.60;;
19903;SDS011;10114;50.970;4.962;2023-03-17T05:48:21;4.90;;;2.00;;
19903;SDS011;10114;50.970;4.962;2023-03-17T05:50:47;5.70;;;2.10;;
19903;SDS011;10114;50.970;4.962;2023-03-17T05:53:14;5.68;;;2.17;;
19903;SDS011;10114;50.970;4.962;2023-03-17T05:55:40;7.07;;;3.17;;
19903;SDS011;10114;50.970;4.962;2023-03-17T05:58:06;6.72;;;2.55;;
19903;SDS011;10114;50.970;4.962;2023-03-17T06:00:33;5.43;;;1.60;;
19903;SDS011;10114;50.970;4.962;2023-03-17T06:03:00;5.20;;;1.85;;
19903;SDS011;10114;50.970;4.962;2023-03-17T06:05:27;4.70;;;1.70;;
19903;SDS011;10114;50.970;4.962;2023-03-17T06:07:53;6.07;;;1.92;;
19903;SDS011;10114;50.970;4.962;2023-03-17T06:10:19;5.57;;;1.77;;
19903;SDS011;10114;50.970;4.962;2023-03-17T06:12:45;5.35;;;1.73;;
19903;SDS011;10114;50.970;4.962;2023-03-17T06:15:12;4.22;;;1.67;;
19903;SDS011;10114;50.970;4.962;2023-03-17T06:17:38;4.30;;;1.60;;
19903;SDS011;10114;50.970;4.962;2023-03-17T06:20:04;7.90;;;2.10;;
19903;SDS011;10114;50.970;4.962;2023-03-17T06:22:30;4.72;;;1.70;;
19903;SDS011;10114;50.970;4.962;2023-03-17T06:24:56;7.32;;;1.80;;
19903;SDS011;10114;50.970;4.962;2023-03-17T06:27:22;5.70;;;1.50;;
19903;SDS011;10114;50.970;4.962;2023-03-17T06:29:48;5.05;;;1.73;;
19903;SDS011;10114;50.970;4.962;2023-03-17T06:32:14;4.30;;;2.10;;
19903;SDS011;10114;50.970;4.962;2023-03-17T06:34:40;3.33;;;1.30;;
19903;SDS011;10114;50.970;4.962;2023-03-17T06:37:07;4.90;;;1.73;;
19903;SDS011;10114;50.970;4.962;2023-03-17T06:39:34;6.13;;;1.88;;
19903;SDS011;10114;50.970;4.962;2023-03-17T06:42:01;5.07;;;1.83;;
19903;SDS011;10114;50.970;4.962;2023-03-17T06:44:27;6.20;;;1.60;;
19903;SDS011;10114;50.970;4.962;2023-03-17T06:46:54;6.40;;;1.70;;
19903;SDS011;10114;50.970;4.962;2023-03-17T06:49:20;5.05;;;1.85;;
19903;SDS011;10114;50.970;4.962;2023-03-17T06:51:46;6.15;;;1.95;;
19903;SDS011;10114;50.970;4.962;2023-03-17T06:54:12;6.78;;;2.33;;
19903;SDS011;10114;50.970;4.962;2023-03-17T06:56:38;7.97;;;1.80;;
19903;SDS011;10114;50.970;4.962;2023-03-17T06:59:04;5.25;;;1.50;;
19903;SDS011;10114;50.970;4.962;2023-03-17T07:01:30;6.60;;;1.77;;
19903;SDS011;10114;50.970;4.962;2023-03-17T07:03:56;6.43;;;1.80;;
19903;SDS011;10114;50.970;4.962;2023-03-17T07:06:22;6.90;;;2.47;;
19903;SDS011;10114;50.970;4.962;2023-03-17T07:08:48;6.15;;;1.90;;
19903;SDS011;10114;50.970;4.962;2023-03-17T07:11:15;9.25;;;1.90;;
19903;SDS011;10114;50.970;4.962;2023-03-17T07:13:41;5.25;;;2.10;;
19903;SDS011;10114;50.970;4.962;2023-03-17T07:16:07;5.05;;;2.17;;
19903;SDS011;10114;50.970;4.962;2023-03-17T07:18:33;4.78;;;1.95;;
19903;SDS011;10114;50.970;4.962;2023-03-17T07:21:00;5.57;;;2.30;;
19903;SDS011;10114;50.970;4.962;2023-03-17T07:23:26;4.78;;;2.03;;
19903;SDS011;10114;50.970;4.962;2023-03-17T07:25:53;7.70;;;2.13;;
19903;SDS011;10114;50.970;4.962;2023-03-17T07:28:19;4.97;;;1.65;;
19903;SDS011;10114;50.970;4.962;2023-03-17T07:30:49;5.88;;;2.13;;
19903;SDS011;10114;50.970;4.962;2023-03-17T07:33:15;6.57;;;1.90;;
19903;SDS011;10114;50.970;4.962;2023-03-17T07:35:45;5.53;;;1.80;;
19903;SDS011;10114;50.970;4.962;2023-03-17T07:38:11;8.15;;;1.88;;
19903;SDS011;10114;50.970;4.962;2023-03-17T07:40:37;3.60;;;1.52;;
19903;SDS011;10114;50.970;4.962;2023-03-17T07:43:03;6.38;;;1.80;;
19903;SDS011;10114;50.970;4.962;2023-03-17T07:45:30;5.60;;;1.95;;
19903;SDS011;10114;50.970;4.962;2023-03-17T07:47:56;3.28;;;1.38;;
19903;SDS011;10114;50.970;4.962;2023-03-17T07:50:22;7.72;;;2.30;;
19903;SDS011;10114;50.970;4.962;2023-03-17T07:52:49;4.72;;;2.00;;
19903;SDS011;10114;50.970;4.962;2023-03-17T07:55:15;5.90;;;2.00;;
19903;SDS011;10114;50.970;4.962;2023-03-17T07:57:41;6.70;;;2.22;;
19903;SDS011;10114;50.970;4.962;2023-03-17T08:00:08;6.10;;;1.95;;
19903;SDS011;10114;50.970;4.962;2023-03-17T08:02:35;5.55;;;2.40;;
19903;SDS011;10114;50.970;4.962;2023-03-17T08:05:01;5.45;;;2.20;;
19903;SDS011;10114;50.970;4.962;2023-03-17T08:07:28;6.20;;;1.85;;
19903;SDS011;10114;50.970;4.962;2023-03-17T08:09:55;4.93;;;1.85;;
19903;SDS011;10114;50.970;4.962;2023-03-17T08:12:22;5.13;;;2.03;;
19903;SDS011;10114;50.970;4.962;2023-03-17T08:14:48;4.15;;;1.50;;
19903;SDS011;10114;50.970;4.962;2023-03-17T08:17:15;5.78;;;1.90;;
19903;SDS011;10114;50.970;4.962;2023-03-17T08:19:41;4.55;;;2.03;;
19903;SDS011;10114;50.970;4.962;2023-03-17T08:22:07;7.03;;;2.33;;
19903;SDS011;10114;50.970;4.962;2023-03-17T08:24:34;9.95;;;1.92;;
19903;SDS011;10114;50.970;4.962;2023-03-17T08:27:01;6.03;;;2.10;;
19903;SDS011;10114;50.970;4.962;2023-03-17T08:29:27;6.30;;;2.28;;
19903;SDS011;10114;50.970;4.962;2023-03-17T08:31:54;9.30;;;1.80;;
19903;SDS011;10114;50.970;4.962;2023-03-17T08:34:20;5.90;;;2.00;;
19903;SDS011;10114;50.970;4.962;2023-03-17T08:36:48;6.68;;;1.95;;
19903;SDS011;10114;50.970;4.962;2023-03-17T08:39:14;8.18;;;1.88;;
19903;SDS011;10114;50.970;4.962;2023-03-17T08:41:40;5.45;;;2.10;;
19903;SDS011;10114;50.970;4.962;2023-03-17T08:44:06;3.15;;;1.45;;
19903;SDS011;10114;50.970;4.962;2023-03-17T08:46:32;6.78;;;1.60;;
19903;SDS011;10114;50.970;4.962;2023-03-17T08:48:59;4.78;;;1.65;;
19903;SDS011;10114;50.970;4.962;2023-03-17T08:51:27;6.28;;;1.83;;
19903;SDS011;10114;50.970;4.962;2023-03-17T08:53:53;4.28;;;1.83;;
19903;SDS011;10114;50.970;4.962;2023-03-17T08:56:20;4.65;;;1.70;;
19903;SDS011;10114;50.970;4.962;2023-03-17T08:58:46;5.82;;;2.00;;
19903;SDS011;10114;50.970;4.962;2023-03-17T09:01:13;4.65;;;1.77;;
19903;SDS011;10114;50.970;4.962;2023-03-17T09:03:40;6.68;;;1.85;;
19903;SDS011;10114;50.970;4.962;2023-03-17T09:06:07;5.38;;;1.90;;
19903;SDS011;10114;50.970;4.962;2023-03-17T09:08:35;6.35;;;1.77;;
19903;SDS011;10114;50.970;4.962;2023-03-17T09:11:04;8.77;;;2.05;;
19903;SDS011;10114;50.970;4.962;2023-03-17T09:13:31;6.35;;;1.83;;
19903;SDS011;10114;50.970;4.962;2023-03-17T09:15:57;7.53;;;1.98;;
19903;SDS011;10114;50.970;4.962;2023-03-17T09:18:24;5.03;;;1.52;;
19903;SDS011;10114;50.970;4.962;2023-03-17T09:20:50;6.25;;;1.73;;
19903;SDS011;10114;50.970;4.962;2023-03-17T09:23:16;4.40;;;1.90;;
19903;SDS011;10114;50.970;4.962;2023-03-17T09:25:42;8.32;;;1.83;;
19903;SDS011;10114;50.970;4.962;2023-03-17T09:28:10;7.47;;;2.13;;
19903;SDS011;10114;50.970;4.962;2023-03-17T09:30:36;6.22;;;1.67;;
19903;SDS011;10114;50.970;4.962;2023-03-17T09:33:02;4.57;;;1.80;;
19903;SDS011;10114;50.970;4.962;2023-03-17T09:35:28;5.95;;;1.67;;
19903;SDS011;10114;50.970;4.962;2023-03-17T09:37:55;10.52;;;1.83;;
19903;SDS011;10114;50.970;4.962;2023-03-17T09:40:25;4.47;;;1.65;;
19903;SDS011;10114;50.970;4.962;2023-03-17T09:42:55;4.30;;;1.83;;
19903;SDS011;10114;50.970;4.962;2023-03-17T09:45:38;6.60;;;1.90;;
19903;SDS011;10114;50.970;4.962;2023-03-17T09:50:33;7.03;;;2.28;;
19903;SDS011;10114;50.970;4.962;2023-03-17T09:53:01;7.97;;;1.77;;
19903;SDS011;10114;50.970;4.962;2023-03-17T09:55:29;6.80;;;1.73;;
19903;SDS011;10114;50.970;4.962;2023-03-17T09:57:57;5.13;;;1.92;;
19903;SDS011;10114;50.970;4.962;2023-03-17T10:00:25;5.63;;;1.70;;
19903;SDS011;10114;50.970;4.962;2023-03-17T10:02:53;7.18;;;1.70;;
19903;SDS011;10114;50.970;4.962;2023-03-17T10:05:34;5.55;;;1.60;;
19903;SDS011;10114;50.970;4.962;2023-03-17T10:08:10;5.32;;;1.80;;
19903;SDS011;10114;50.970;4.962;2023-03-17T10:13:21;6.30;;;1.73;;
19903;SDS011;10114;50.970;4.962;2023-03-17T10:15:52;7.18;;;1.70;;
19903;SDS011;10114;50.970;4.962;2023-03-17T10:18:19;5.18;;;2.17;;
19903;SDS011;10114;50.970;4.962;2023-03-17T10:20:50;5.75;;;1.70;;
19903;SDS011;10114;50.970;4.962;2023-03-17T10:23:18;6.03;;;1.75;;
19903;SDS011;10114;50.970;4.962;2023-03-17T10:25:45;5.18;;;1.95;;
19903;SDS011;10114;50.970;4.962;2023-03-17T10:28:31;7.75;;;2.42;;
19903;SDS011;10114;50.970;4.962;2023-03-17T10:31:16;6.47;;;2.08;;
19903;SDS011;10114;50.970;4.962;2023-03-17T10:33:43;5.22;;;1.58;;
19903;SDS011;10114;50.970;4.962;2023-03-17T10:36:10;4.75;;;1.77;;
19903;SDS011;10114;50.970;4.962;2023-03-17T10:38:39;4.50;;;1.65;;
19903;SDS011;10114;50.970;4.962;2023-03-17T10:41:06;7.70;;;2.50;;
19903;SDS011;10114;50.970;4.962;2023-03-17T10:43:38;5.65;;;1.38;;
19903;SDS011;10114;50.970;4.962;2023-03-17T10:46:11;6.07;;;1.77;;
19903;SDS011;10114;50.970;4.962;2023-03-17T10:48:40;4.65;;;1.92;;
19903;SDS011;10114;50.970;4.962;2023-03-17T10:51:07;6.03;;;1.70;;
19903;SDS011;10114;50.970;4.962;2023-03-17T10:53:38;4.55;;;2.10;;
19903;SDS011;10114;50.970;4.962;2023-03-17T10:56:08;9.85;;;2.10;;
19903;SDS011;10114;50.970;4.962;2023-03-17T11:01:14;4.10;;;1.55;;
19903;SDS011;10114;50.970;4.962;2023-03-17T11:03:44;5.95;;;1.90;;
19903;SDS011;10114;50.970;4.962;2023-03-17T11:06:12;5.40;;;1.70;;
19903;SDS011;10114;50.970;4.962;2023-03-17T11:08:41;6.93;;;2.50;;
19903;SDS011;10114;50.970;4.962;2023-03-17T11:11:08;6.63;;;2.25;;
19903;SDS011;10114;50.970;4.962;2023-03-17T11:13:35;7.00;;;2.17;;
19903;SDS011;10114;50.970;4.962;2023-03-17T11:16:11;5.65;;;2.00;;
19903;SDS011;10114;50.970;4.962;2023-03-17T11:18:42;8.05;;;2.00;;
19903;SDS011;10114;50.970;4.962;2023-03-17T11:21:10;5.57;;;1.70;;
19903;SDS011;10114;50.970;4.962;2023-03-17T11:26:10;6.00;;;1.95;;
19903;SDS011;10114;50.970;4.962;2023-03-17T11:28:39;7.88;;;2.45;;
19903;SDS011;10114;50.970;4.962;2023-03-17T11:34:16;7.32;;;2.20;;
19903;SDS011;10114;50.970;4.962;2023-03-17T11:38:59;6.97;;;2.40;;
19903;SDS011;10114;50.970;4.962;2023-03-17T11:41:41;5.45;;;2.22;;
19903;SDS011;10114;50.970;4.962;2023-03-17T11:44:27;7.72;;;1.90;;
19903;SDS011;10114;50.970;4.962;2023-03-17T11:49:29;8.55;;;2.20;;
19903;SDS011;10114;50.970;4.962;2023-03-17T11:52:02;6.05;;;1.85;;
19903;SDS011;10114;50.970;4.962;2023-03-17T11:56:56;4.90;;;1.70;;
19903;SDS011;10114;50.970;4.962;2023-03-17T11:59:34;3.67;;;1.70;;
19903;SDS011;10114;50.970;4.962;2023-03-17T12:04:33;7.65;;;1.80;;
19903;SDS011;10114;50.970;4.962;2023-03-17T12:07:13;4.15;;;1.75;;
19903;SDS011;10114;50.970;4.962;2023-03-17T12:09:46;7.63;;;2.40;;
19903;SDS011;10114;50.970;4.962;2023-03-17T12:12:16;6.32;;;1.85;;
19903;SDS011;10114;50.970;4.962;2023-03-17T12:14:46;7.18;;;2.30;;
19903;SDS011;10114;50.970;4.962;2023-03-17T12:17:23;7.18;;;2.20;;
19903;SDS011;10114;50.970;4.962;2023-03-17T12:22:32;7.80;;;1.85;;
19903;SDS011;10114;50.970;4.962;2023-03-17T12:25:11;4.40;;;1.83;;
19903;SDS011;10114;50.970;4.962;2023-03-17T12:27:47;6.10;;;1.95;;
19903;SDS011;10114;50.970;4.962;2023-03-17T12:30:16;6.00;;;2.10;;
19903;SDS011;10114;50.970;4.962;2023-03-17T12:32:54;5.57;;;1.98;;
19903;SDS011;10114;50.970;4.962;2023-03-17T12:35:30;6.10;;;1.85;;
19903;SDS011;10114;50.970;4.962;2023-03-17T12:37:58;8.40;;;1.90;;
19903;SDS011;10114;50.970;4.962;2023-03-17T12:40:33;5.25;;;1.75;;
19903;SDS011;10114;50.970;4.962;2023-03-17T12:46:01;5.43;;;1.75;;
19903;SDS011;10114;50.970;4.962;2023-03-17T12:48:48;7.32;;;1.95;;
19903;SDS011;10114;50.970;4.962;2023-03-17T12:54:26;4.28;;;1.23;;
19903;SDS011;10114;50.970;4.962;2023-03-17T12:56:58;5.07;;;1.40;;
19903;SDS011;10114;50.970;4.962;2023-03-17T12:59:25;4.80;;;1.45;;
19903;SDS011;10114;50.970;4.962;2023-03-17T13:02:04;5.70;;;1.50;;
19903;SDS011;10114;50.970;4.962;2023-03-17T13:04:35;4.68;;;1.50;;
19903;SDS011;10114;50.970;4.962;2023-03-17T13:07:17;9.18;;;1.90;;
19903;SDS011;10114;50.970;4.962;2023-03-17T13:15:02;5.90;;;1.45;;
19903;SDS011;10114;50.970;4.962;2023-03-17T13:17:29;6.85;;;1.63;;
19903;SDS011;10114;50.970;4.962;2023-03-17T13:28:15;5.65;;;1.60;;
19903;SDS011;10114;50.970;4.962;2023-03-17T13:30:45;6.15;;;2.00;;
19903;SDS011;10114;50.970;4.962;2023-03-17T13:33:20;4.72;;;1.35;;
19903;SDS011;10114;50.970;4.962;2023-03-17T13:43:51;5.65;;;1.60;;
19903;SDS011;10114;50.970;4.962;2023-03-17T13:48:56;4.05;;;1.20;;
19903;SDS011;10114;50.970;4.962;2023-03-17T13:51:23;4.22;;;1.30;;
19903;SDS011;10114;50.970;4.962;2023-03-17T13:54:06;5.05;;;1.52;;
19903;SDS011;10114;50.970;4.962;2023-03-17T14:02:13;6.40;;;1.38;;
19903;SDS011;10114;50.970;4.962;2023-03-17T14:04:20;4.85;;;1.25;;
19903;SDS011;10114;50.970;4.962;2023-03-17T14:06:47;4.13;;;1.15;;
19903;SDS011;10114;50.970;4.962;2023-03-17T14:09:24;2.83;;;1.10;;
19903;SDS011;10114;50.970;4.962;2023-03-17T14:11:51;6.82;;;1.98;;
19903;SDS011;10114;50.970;4.962;2023-03-17T14:14:23;6.38;;;1.35;;
19903;SDS011;10114;50.970;4.962;2023-03-17T14:19:23;5.68;;;2.13;;
19903;SDS011;10114;50.970;4.962;2023-03-17T14:21:53;4.38;;;1.30;;
19903;SDS011;10114;50.970;4.962;2023-03-17T14:26:45;3.65;;;1.23;;
19903;SDS011;10114;50.970;4.962;2023-03-17T14:29:16;4.30;;;1.25;;
19903;SDS011;10114;50.970;4.962;2023-03-17T14:31:57;4.68;;;1.30;;
19903;SDS011;10114;50.970;4.962;2023-03-17T14:34:26;4.65;;;1.20;;
19903;SDS011;10114;50.970;4.962;2023-03-17T14:36:52;5.72;;;1.58;;
19903;SDS011;10114;50.970;4.962;2023-03-17T14:39:22;9.63;;;1.77;;
19903;SDS011;10114;50.970;4.962;2023-03-17T14:41:58;3.78;;;1.00;;
19903;SDS011;10114;50.970;4.962;2023-03-17T14:44:24;5.07;;;1.70;;
19903;SDS011;10114;50.970;4.962;2023-03-17T14:46:50;3.92;;;1.35;;
19903;SDS011;10114;50.970;4.962;2023-03-17T14:49:25;5.35;;;1.25;;
19903;SDS011;10114;50.970;4.962;2023-03-17T14:51:52;4.63;;;1.60;;
19903;SDS011;10114;50.970;4.962;2023-03-17T14:54:26;8.48;;;1.50;;
19903;SDS011;10114;50.970;4.962;2023-03-17T14:56:54;4.32;;;1.50;;
19903;SDS011;10114;50.970;4.962;2023-03-17T14:59:36;6.53;;;1.60;;
19903;SDS011;10114;50.970;4.962;2023-03-17T15:02:13;5.88;;;1.60;;
19903;SDS011;10114;50.970;4.962;2023-03-17T15:04:48;5.85;;;1.38;;
19903;SDS011;10114;50.970;4.962;2023-03-17T15:07:24;5.63;;;1.58;;
19903;SDS011;10114;50.970;4.962;2023-03-17T15:09:57;4.22;;;1.65;;
19903;SDS011;10114;50.970;4.962;2023-03-17T15:12:25;6.32;;;1.73;;
19903;SDS011;10114;50.970;4.962;2023-03-17T15:14:52;6.85;;;1.55;;
19903;SDS011;10114;50.970;4.962;2023-03-17T15:17:20;4.47;;;1.35;;
19903;SDS011;10114;50.970;4.962;2023-03-17T15:19:48;4.95;;;1.55;;
19903;SDS011;10114;50.970;4.962;2023-03-17T15:22:25;6.30;;;1.38;;
19903;SDS011;10114;50.970;4.962;2023-03-17T15:25:02;3.75;;;1.10;;
19903;SDS011;10114;50.970;4.962;2023-03-17T15:27:29;2.85;;;1.08;;
19903;SDS011;10114;50.970;4.962;2023-03-17T15:29:55;4.47;;;1.48;;
19903;SDS011;10114;50.970;4.962;2023-03-17T15:32:22;2.55;;;1.10;;
19903;SDS011;10114;50.970;4.962;2023-03-17T15:34:50;4.68;;;1.08;;
19903;SDS011;10114;50.970;4.962;2023-03-17T15:39:46;6.00;;;1.48;;
19903;SDS011;10114;50.970;4.962;2023-03-17T15:42:12;6.40;;;1.45;;
19903;SDS011;10114;50.970;4.962;2023-03-17T15:44:38;4.32;;;1.52;;
19903;SDS011;10114;50.970;4.962;2023-03-17T15:47:04;4.15;;;1.50;;
19903;SDS011;10114;50.970;4.962;2023-03-17T15:49:30;6.55;;;1.52;;
19903;SDS011;10114;50.970;4.962;2023-03-17T15:51:58;4.10;;;1.40;;
19903;SDS011;10114;50.970;4.962;2023-03-17T15:54:24;4.05;;;1.38;;
19903;SDS011;10114;50.970;4.962;2023-03-17T15:56:50;3.75;;;1.20;;
19903;SDS011;10114;50.970;4.962;2023-03-17T15:59:16;5.28;;;1.60;;
19903;SDS011;10114;50.970;4.962;2023-03-17T16:01:42;4.15;;;1.60;;
19903;SDS011;10114;50.970;4.962;2023-03-17T16:04:09;4.97;;;1.60;;
19903;SDS011;10114;50.970;4.962;2023-03-17T16:06:37;5.05;;;1.70;;
19903;SDS011;10114;50.970;4.962;2023-03-17T16:09:05;3.47;;;1.08;;
19903;SDS011;10114;50.970;4.962;2023-03-17T16:11:32;5.40;;;1.48;;